createdAt,value
2022-09-05T00:01:52.416Z,10.10
2022-09-05T00:04:39.570Z,9.57
2022-09-05T00:07:57.763Z,9.57
2022-09-05T00:10:36.082Z,17.48
2022-09-05T00:13:15.691Z,17.57
2022-09-05T00:15:59.012Z,15.20
2022-09-05T00:24:17.511Z,13.02
2022-09-05T00:24:30.778Z,13.90
2022-09-05T00:25:31.046Z,99.78
2022-09-05T00:28:25.309Z,47.72
2022-09-05T00:31:54.744Z,20.38
2022-09-05T00:34:03.322Z,14.95
2022-09-05T00:36:38.799Z,11.88
2022-09-05T00:39:21.849Z,12.02
2022-09-05T00:41:54.929Z,10.75
2022-09-05T00:44:30.732Z,12.48
2022-09-05T00:47:31.668Z,12.40
2022-09-05T00:50:17.951Z,11.38
2022-09-05T00:53:06.571Z,9.95
2022-09-05T00:55:41.812Z,10.32
2022-09-05T00:58:34.325Z,10.55
2022-09-05T01:04:05.042Z,11.68
2022-09-05T01:06:55.976Z,17.38
2022-09-05T01:09:43.738Z,18.77
2022-09-05T01:12:34.597Z,17.17
2022-09-05T01:15:20.650Z,15.57
2022-09-05T01:17:52.519Z,13.80
2022-09-05T01:20:42.290Z,12.47
2022-09-05T01:23:36.416Z,10.82
2022-09-05T01:26:04.541Z,13.15
2022-09-05T01:29:17.314Z,13.75
2022-09-05T01:31:57.903Z,14.73
2022-09-05T01:34:34.968Z,12.15
2022-09-05T01:37:32.638Z,13.18
2022-09-05T01:40:24.734Z,13.65
2022-09-05T01:43:11.172Z,13.00
2022-09-05T01:45:56.360Z,12.88
2022-09-05T01:48:49.706Z,14.00
2022-09-05T01:51:32.748Z,15.40
2022-09-05T01:54:34.339Z,15.02
2022-09-05T01:57:46.974Z,12.32
2022-09-05T02:00:21.149Z,11.10
2022-09-05T02:03:14.152Z,9.35
2022-09-05T02:06:12.496Z,9.75
2022-09-05T02:09:10.413Z,10.15
2022-09-05T02:11:41.889Z,9.93
2022-09-05T02:14:34.359Z,11.87
2022-09-05T02:17:51.279Z,10.48
2022-09-05T02:21:02.989Z,14.57
2022-09-05T02:24:10.526Z,13.48
2022-09-05T02:27:04.562Z,10.82
2022-09-05T02:29:55.407Z,11.98
2022-09-05T02:32:57.330Z,12.48
2022-09-05T02:35:36.429Z,12.33
2022-09-05T02:44:09.416Z,17.00
2022-09-05T02:45:19.571Z,17.35
2022-09-05T02:45:19.571Z,19.20
2022-09-05T02:47:39.604Z,17.67
2022-09-05T02:56:17.918Z,15.15
2022-09-05T02:57:26.038Z,13.30
2022-09-05T02:57:41.753Z,16.40
2022-09-05T02:59:12.191Z,24.55
2022-09-05T03:01:43.589Z,23.33
2022-09-05T03:04:30.203Z,22.10
2022-09-05T03:07:10.439Z,30.48
2022-09-05T03:09:51.058Z,22.75
2022-09-05T03:12:28.369Z,16.13
2022-09-05T03:15:18.721Z,11.23
2022-09-05T03:17:56.910Z,12.32
2022-09-05T03:21:09.584Z,11.55
2022-09-05T03:24:22.888Z,11.93
2022-09-05T03:30:02.919Z,11.70
2022-09-05T03:32:48.712Z,25.10
2022-09-05T03:35:54.095Z,23.02
2022-09-05T03:38:50.029Z,14.75
2022-09-05T03:41:33.926Z,11.38
2022-09-05T03:44:23.924Z,12.27
2022-09-05T03:47:19.990Z,10.80
2022-09-05T03:55:31.667Z,10.88
2022-09-05T03:57:10.811Z,11.45
2022-09-05T03:57:14.834Z,13.45
2022-09-05T03:59:16.028Z,10.52
2022-09-05T04:06:58.319Z,10.43
2022-09-05T04:08:18.069Z,9.73
2022-09-05T04:08:34.386Z,12.88
2022-09-05T04:11:38.454Z,10.70
2022-09-05T04:14:25.308Z,10.68
2022-09-05T04:17:10.885Z,10.05
2022-09-05T04:19:50.159Z,10.68
2022-09-05T04:22:36.712Z,11.75
2022-09-05T04:25:37.500Z,15.27
2022-09-05T04:28:19.671Z,26.33
2022-09-05T04:31:01.035Z,26.08
2022-09-05T04:34:00.723Z,22.23
2022-09-05T04:36:32.739Z,19.55
2022-09-05T04:39:19.265Z,14.77
2022-09-05T04:42:22.151Z,16.20
2022-09-05T04:44:55.638Z,18.80
2022-09-05T04:47:40.458Z,19.15
2022-09-05T04:50:20.285Z,21.00
2022-09-05T04:53:01.451Z,23.75
2022-09-05T04:55:51.033Z,19.00
2022-09-05T04:59:29.358Z,19.35
2022-09-05T05:06:00.846Z,18.95
2022-09-05T05:06:14.074Z,14.60
2022-09-05T05:07:51.466Z,14.57
2022-09-05T05:14:28.985Z,12.95
2022-09-05T05:17:55.435Z,13.57
2022-09-05T05:18:06.723Z,14.75
2022-09-05T05:19:34.222Z,14.10
2022-09-05T05:24:43.049Z,16.48
2022-09-05T05:27:21.712Z,15.95
2022-09-05T05:29:53.466Z,17.83
2022-09-05T05:32:44.830Z,19.52
2022-09-05T05:35:19.856Z,20.38
2022-09-05T05:38:14.391Z,24.40
2022-09-05T05:40:51.521Z,24.85
2022-09-05T05:43:26.417Z,24.20
2022-09-05T05:46:01.821Z,23.83
2022-09-05T05:48:42.176Z,24.27
2022-09-05T05:52:02.390Z,25.08
2022-09-05T05:54:34.306Z,28.20
2022-09-05T05:57:24.157Z,25.83
2022-09-05T06:00:40.124Z,28.90
2022-09-05T06:03:37.818Z,28.00
2022-09-05T06:06:24.162Z,26.02
2022-09-05T06:14:50.078Z,25.70
2022-09-05T06:15:01.624Z,23.20
2022-09-05T06:15:45.362Z,23.80
2022-09-05T06:18:47.492Z,21.35
2022-09-05T06:22:09.227Z,28.67
2022-09-05T06:24:52.059Z,23.27
2022-09-05T06:28:18.069Z,23.88
2022-09-05T06:31:02.116Z,24.45
2022-09-05T06:33:57.790Z,23.58
2022-09-05T06:36:31.934Z,22.73
2022-09-05T06:39:28.265Z,21.67
2022-09-05T06:42:08.744Z,23.15
2022-09-05T06:45:28.389Z,20.88
2022-09-05T06:48:10.474Z,20.27
2022-09-05T06:51:19.276Z,21.60
2022-09-05T06:54:05.983Z,20.63
2022-09-05T06:56:54.447Z,20.23
2022-09-05T07:00:04.137Z,22.73
2022-09-05T07:02:59.180Z,20.50
2022-09-05T07:05:39.818Z,20.45
2022-09-05T07:08:37.012Z,20.90
2022-09-05T07:11:22.136Z,20.30
2022-09-05T07:14:16.690Z,22.38
2022-09-05T07:16:56.793Z,21.35
2022-09-05T07:19:31.035Z,20.65
2022-09-05T07:22:46.092Z,19.50
2022-09-05T07:25:11.023Z,21.42
2022-09-05T07:28:29.104Z,21.98
2022-09-05T07:30:54.248Z,20.98
2022-09-05T07:33:27.762Z,22.90
2022-09-05T07:36:09.217Z,22.70
2022-09-05T07:38:54.905Z,20.17
2022-09-05T07:41:32.442Z,20.63
2022-09-05T07:44:09.048Z,19.02
2022-09-05T07:46:40.469Z,18.65
2022-09-05T07:49:15.264Z,19.83
2022-09-05T07:56:49.493Z,21.10
2022-09-05T07:57:08.354Z,21.83
2022-09-05T07:57:50.654Z,18.73
2022-09-05T08:00:27.117Z,19.63
2022-09-05T08:03:12.655Z,20.75
2022-09-05T08:05:48.675Z,21.08
2022-09-05T08:08:29.357Z,18.85
2022-09-05T08:11:23.915Z,20.10
2022-09-05T08:14:38.432Z,17.95
2022-09-05T08:16:49.435Z,18.65
2022-09-05T08:19:41.363Z,18.40
2022-09-05T08:22:16.146Z,17.02
2022-09-05T08:25:08.965Z,15.57
2022-09-05T08:28:08.257Z,16.35
2022-09-05T08:30:46.650Z,13.38
2022-09-05T08:33:23.016Z,16.40
2022-09-05T08:36:01.327Z,14.02
2022-09-05T08:38:37.457Z,13.65
2022-09-05T08:41:15.461Z,13.82
2022-09-05T08:46:45.643Z,15.10
2022-09-05T08:47:23.068Z,16.38
2022-09-05T08:50:17.326Z,12.27
2022-09-05T08:53:35.975Z,12.52
2022-09-05T08:56:24.382Z,14.52
2022-09-05T08:59:32.048Z,13.98
2022-09-05T09:02:14.631Z,11.38
2022-09-05T09:05:21.448Z,12.45
2022-09-05T09:08:08.696Z,11.60
2022-09-05T09:10:50.481Z,9.90
2022-09-05T09:13:52.984Z,10.25
2022-09-05T09:16:37.988Z,10.63
2022-09-05T09:19:29.568Z,8.45
2022-09-05T09:22:23.102Z,9.38
2022-09-05T09:25:16.122Z,9.70
2022-09-05T09:28:49.043Z,8.70
2022-09-05T09:31:21.494Z,9.18
2022-09-05T09:34:26.522Z,11.02
2022-09-05T09:37:16.205Z,11.45
2022-09-05T09:40:00.271Z,13.00
2022-09-05T09:42:49.809Z,10.95
2022-09-05T09:45:39.371Z,7.70
2022-09-05T09:48:47.276Z,8.85
2022-09-05T09:52:06.564Z,11.13
2022-09-05T09:54:47.337Z,9.98
2022-09-05T09:58:12.960Z,10.85
2022-09-05T10:01:35.136Z,7.85
2022-09-05T10:10:34.294Z,11.00
2022-09-05T10:10:52.714Z,10.43
2022-09-05T10:11:22.685Z,11.18
2022-09-05T10:13:39.791Z,10.93
2022-09-05T10:16:34.693Z,14.32
2022-09-05T10:22:39.379Z,17.85
2022-09-05T10:25:15.056Z,20.83
2022-09-05T10:28:11.846Z,15.10
2022-09-05T10:33:01.124Z,17.42
2022-09-05T10:35:18.355Z,20.35
2022-09-05T10:37:12.251Z,13.80
2022-09-05T10:39:47.757Z,13.60
2022-09-05T10:42:22.024Z,13.63
2022-09-05T10:44:58.136Z,15.55
2022-09-05T10:47:44.126Z,15.40
2022-09-05T10:50:26.965Z,8.50
2022-09-05T10:53:01.549Z,7.43
2022-09-05T10:55:57.816Z,8.05
2022-09-05T11:02:16.132Z,6.95
2022-09-05T11:02:30.218Z,7.05
2022-09-05T11:05:21.613Z,7.53
2022-09-05T11:08:10.436Z,7.28
2022-09-05T11:10:49.932Z,8.45
2022-09-05T11:13:36.891Z,8.32
2022-09-05T11:16:19.585Z,12.38
2022-09-05T11:19:17.908Z,9.60
2022-09-05T11:22:22.894Z,13.50
2022-09-05T11:25:01.025Z,11.02
2022-09-05T11:27:40.401Z,11.23
2022-09-05T11:30:38.156Z,10.40
2022-09-05T11:39:51.657Z,8.88
2022-09-05T11:39:56.069Z,7.22
2022-09-05T11:40:35.240Z,8.30
2022-09-05T11:43:48.874Z,7.63
2022-09-05T11:47:26.576Z,8.73
2022-09-05T11:50:11.005Z,8.60
2022-09-05T11:53:22.415Z,9.55
2022-09-05T11:56:09.252Z,11.40
2022-09-05T11:59:11.251Z,9.95
2022-09-05T12:02:23.334Z,8.13
2022-09-05T12:05:49.606Z,8.38
2022-09-05T12:08:05.507Z,9.57
2022-09-05T12:11:01.959Z,7.35
2022-09-05T12:13:48.770Z,8.35
2022-09-05T12:16:39.659Z,9.38
2022-09-05T12:19:36.923Z,10.77
2022-09-05T12:22:23.875Z,7.05
2022-09-05T12:25:25.060Z,6.70
2022-09-05T12:28:51.090Z,9.20
2022-09-05T12:31:00.487Z,7.15
2022-09-05T12:36:05.777Z,10.27
2022-09-05T12:40:15.837Z,10.63
2022-09-05T12:40:45.014Z,9.85
2022-09-05T12:42:23.655Z,7.47
2022-09-05T12:45:19.516Z,7.35
2022-09-05T12:48:16.206Z,7.93
2022-09-05T12:50:57.885Z,10.98
2022-09-05T12:53:28.744Z,10.20
2022-09-05T12:57:17.247Z,9.37
2022-09-05T13:02:57.933Z,12.93
2022-09-05T13:03:05.900Z,10.65
2022-09-05T13:05:01.993Z,12.23
2022-09-05T13:07:40.259Z,10.98
2022-09-05T13:12:48.157Z,8.95
2022-09-05T13:15:07.510Z,12.23
2022-09-05T13:16:15.527Z,13.88
2022-09-05T13:19:11.824Z,16.48
2022-09-05T13:21:43.311Z,15.60
2022-09-05T13:24:15.471Z,12.40
2022-09-05T13:27:14.280Z,8.70
2022-09-05T13:30:14.922Z,9.20
2022-09-05T13:38:06.157Z,8.50
2022-09-05T13:38:08.368Z,9.02
2022-09-05T13:39:07.777Z,10.02
2022-09-05T13:41:44.340Z,11.00
2022-09-05T13:44:37.430Z,9.60
2022-09-05T13:47:40.921Z,10.15
2022-09-05T13:50:24.250Z,11.85
2022-09-05T13:53:09.570Z,14.02
2022-09-05T13:55:53.302Z,13.57
2022-09-05T13:58:38.871Z,12.50
2022-09-05T14:01:13.143Z,10.05
2022-09-05T14:04:01.669Z,12.07
2022-09-05T14:06:47.262Z,10.15
2022-09-05T14:09:45.298Z,18.33
2022-09-05T14:13:01.260Z,20.40
2022-09-05T14:15:30.200Z,14.73
2022-09-05T14:18:26.822Z,15.18
2022-09-05T14:20:55.216Z,11.73
2022-09-05T14:23:28.950Z,8.85
2022-09-05T14:26:03.154Z,7.70
2022-09-05T14:28:39.393Z,9.35
2022-09-05T14:34:07.095Z,7.45
2022-09-05T14:37:41.283Z,7.43
2022-09-05T14:37:51.826Z,7.03
2022-09-05T14:40:37.790Z,7.05
2022-09-05T14:43:37.990Z,9.88
2022-09-05T14:46:06.480Z,8.52
2022-09-05T14:48:40.714Z,8.85
2022-09-05T14:51:33.600Z,11.98
2022-09-05T14:58:37.061Z,9.63
2022-09-05T15:02:44.407Z,8.95
2022-09-05T15:03:02.634Z,8.90
2022-09-05T15:05:43.045Z,9.85
2022-09-05T15:09:38.996Z,9.60
2022-09-05T15:12:17.891Z,9.43
2022-09-05T15:14:06.679Z,7.07
2022-09-05T15:19:04.764Z,24.45
2022-09-05T15:21:35.921Z,19.17
2022-09-05T15:24:21.544Z,12.32
2022-09-05T15:27:01.110Z,8.55
2022-09-05T15:29:35.344Z,9.10
2022-09-05T15:32:20.980Z,8.98
2022-09-05T15:34:51.447Z,7.85
2022-09-05T15:37:37.281Z,7.43
2022-09-05T15:40:23.252Z,8.05
2022-09-05T15:42:59.546Z,7.22
2022-09-05T15:45:32.437Z,6.72
2022-09-05T15:48:22.154Z,7.45
2022-09-05T15:50:54.276Z,7.07
2022-09-05T15:53:27.700Z,8.43
2022-09-05T15:56:10.134Z,8.65
2022-09-05T15:58:58.728Z,8.00
2022-09-05T16:01:58.180Z,7.70
2022-09-05T16:09:16.615Z,9.32
2022-09-05T16:10:39.232Z,8.13
2022-09-05T16:10:57.946Z,8.77
2022-09-05T16:13:17.726Z,6.18
2022-09-05T16:22:41.160Z,7.13
2022-09-05T16:23:24.301Z,8.18
2022-09-05T16:23:26.020Z,8.82
2022-09-05T16:24:59.706Z,7.95
2022-09-05T16:27:43.971Z,9.55
2022-09-05T16:30:25.964Z,9.73
2022-09-05T16:33:01.172Z,8.57
2022-09-05T16:35:34.364Z,8.73
2022-09-05T16:38:49.486Z,8.82
2022-09-05T16:41:39.601Z,14.55
2022-09-05T16:44:30.851Z,13.40
2022-09-05T16:47:21.084Z,10.70
2022-09-05T16:49:58.758Z,12.05
2022-09-05T16:52:53.544Z,11.13
2022-09-05T16:55:55.822Z,10.65
2022-09-05T16:58:43.259Z,18.20
2022-09-05T17:01:30.635Z,14.43
2022-09-05T17:04:15.887Z,10.90
2022-09-05T17:07:02.165Z,11.70
2022-09-05T17:09:41.548Z,13.55
2022-09-05T17:12:26.488Z,13.32
2022-09-05T17:14:58.472Z,14.73
2022-09-05T17:20:22.508Z,13.65
2022-09-05T17:29:15.721Z,11.40
2022-09-05T17:29:31.938Z,9.13
2022-09-05T17:29:41.403Z,8.85
2022-09-05T17:31:55.769Z,7.63
2022-09-05T17:34:34.870Z,9.25
2022-09-05T17:37:22.392Z,8.45
2022-09-05T17:40:19.203Z,7.43
2022-09-05T17:43:28.503Z,10.30
2022-09-05T17:46:28.870Z,9.05
2022-09-05T17:49:17.924Z,11.93
2022-09-05T17:51:53.472Z,7.50
2022-09-05T17:54:30.152Z,8.38
2022-09-05T17:57:27.282Z,8.88
2022-09-05T17:59:56.661Z,9.95
2022-09-05T18:02:24.889Z,8.10
2022-09-05T18:04:54.923Z,9.18
2022-09-05T18:07:26.150Z,7.60
2022-09-05T18:10:11.992Z,8.18
2022-09-05T18:13:13.025Z,9.48
2022-09-05T18:15:35.561Z,7.32
2022-09-05T18:18:11.862Z,9.07
2022-09-05T18:21:21.455Z,8.95
2022-09-05T18:24:04.781Z,9.00
2022-09-05T18:26:48.781Z,8.93
2022-09-05T18:29:57.962Z,10.65
2022-09-05T18:32:48.111Z,8.63
2022-09-05T18:35:36.996Z,8.32
2022-09-05T18:38:51.494Z,8.07
2022-09-05T18:41:24.597Z,8.30
2022-09-05T18:44:13.928Z,8.98
2022-09-05T18:46:52.537Z,9.25
2022-09-05T18:50:25.877Z,10.60
2022-09-05T18:52:50.594Z,11.10
2022-09-05T18:56:13.519Z,14.55
2022-09-05T18:58:35.142Z,10.77
2022-09-05T19:01:28.364Z,11.45
2022-09-05T19:04:02.645Z,42.85
2022-09-05T19:06:37.932Z,29.20
2022-09-05T19:09:11.285Z,17.58
2022-09-05T19:12:33.374Z,26.48
2022-09-05T19:15:16.142Z,29.45
2022-09-05T19:17:48.354Z,26.15
2022-09-05T19:23:13.281Z,31.33
2022-09-05T19:25:46.955Z,30.67
2022-09-05T19:36:49.257Z,23.55
2022-09-05T19:36:53.518Z,15.15
2022-09-05T19:37:04.360Z,12.20
2022-09-05T19:37:27.434Z,11.20
2022-09-05T19:44:39.053Z,11.40
2022-09-05T19:47:38.545Z,12.30
2022-09-05T19:47:38.728Z,10.57
2022-09-05T19:48:34.882Z,11.60
2022-09-05T19:51:16.962Z,12.30
2022-09-05T19:54:05.008Z,8.93
2022-09-05T19:56:47.128Z,9.13
2022-09-05T19:59:17.465Z,15.50
2022-09-05T20:01:47.151Z,12.07
2022-09-05T20:04:16.173Z,10.10
2022-09-05T20:06:44.766Z,9.80
2022-09-05T20:09:17.323Z,8.07
2022-09-05T20:11:59.529Z,9.38
2022-09-05T20:17:17.865Z,10.13
2022-09-05T20:19:46.491Z,8.25
2022-09-05T20:22:47.900Z,9.18
2022-09-05T20:25:36.190Z,8.48
2022-09-05T20:28:09.944Z,8.68
2022-09-05T20:30:43.989Z,7.93
2022-09-05T20:33:35.345Z,8.10
2022-09-05T20:41:44.924Z,9.90
2022-09-05T20:43:14.584Z,9.48
2022-09-05T20:43:21.933Z,7.88
2022-09-05T20:44:40.652Z,11.55
2022-09-05T20:49:04.479Z,12.80
2022-09-05T20:54:24.362Z,10.18
2022-09-05T20:54:27.970Z,13.40
2022-09-05T20:56:23.794Z,13.05
2022-09-05T20:58:52.362Z,14.73
2022-09-05T21:01:24.184Z,10.68
2022-09-05T21:04:04.451Z,10.80
2022-09-05T21:06:34.624Z,15.63
2022-09-05T21:09:12.219Z,21.67
2022-09-05T21:11:41.708Z,14.20
2022-09-05T21:14:11.118Z,13.85
2022-09-05T21:16:46.626Z,11.32
2022-09-05T21:19:36.522Z,15.05
2022-09-05T21:22:07.611Z,9.90
2022-09-05T21:24:36.911Z,11.77
2022-09-05T21:27:15.774Z,13.77
2022-09-05T21:29:46.884Z,9.65
2022-09-05T21:32:25.615Z,9.40
2022-09-05T21:34:59.255Z,10.98
2022-09-05T21:37:27.434Z,12.07
2022-09-05T21:39:59.152Z,11.80
2022-09-05T21:46:50.114Z,13.15
2022-09-05T21:47:47.848Z,13.95
2022-09-05T21:48:11.401Z,11.98
2022-09-05T21:50:51.309Z,9.63
2022-09-05T21:54:38.129Z,10.02
2022-09-05T21:59:14.951Z,10.40
2022-09-05T21:59:36.978Z,12.10
2022-09-05T22:02:05.136Z,10.10
2022-09-05T22:04:33.366Z,9.18
2022-09-05T22:07:13.281Z,11.38
2022-09-05T22:09:41.868Z,7.10
2022-09-05T22:12:30.642Z,6.20
2022-09-05T22:15:26.131Z,7.93
2022-09-05T22:17:51.677Z,9.27
2022-09-05T22:20:20.330Z,9.45
2022-09-05T22:22:56.815Z,9.68
2022-09-05T22:25:31.706Z,10.05
2022-09-05T22:28:14.105Z,9.38
2022-09-05T22:33:10.746Z,7.68
2022-09-05T22:35:39.800Z,8.80
2022-09-05T22:38:12.585Z,7.65
2022-09-05T22:40:44.467Z,6.90
2022-09-05T22:43:13.118Z,7.10
2022-09-05T22:45:41.445Z,6.95
2022-09-05T22:48:14.742Z,6.35
2022-09-05T22:50:43.666Z,7.13
2022-09-05T22:53:12.228Z,7.22
2022-09-05T22:55:42.834Z,7.30
2022-09-05T22:58:14.023Z,8.43
2022-09-05T23:00:42.616Z,9.20
2022-09-05T23:03:10.957Z,6.70
2022-09-05T23:05:39.559Z,8.80
2022-09-05T23:08:08.231Z,9.10
2022-09-05T23:10:38.013Z,11.52
2022-09-05T23:13:10.891Z,9.23
2022-09-05T23:15:39.679Z,8.77
2022-09-05T23:18:08.142Z,7.93
2022-09-05T23:20:36.470Z,7.90
2022-09-05T23:23:08.378Z,3.22
2022-09-05T23:25:37.095Z,2.30
2022-09-05T23:28:10.383Z,1.88
2022-09-05T23:30:39.970Z,2.53
2022-09-05T23:33:09.716Z,2.45
2022-09-05T23:35:38.562Z,2.03
2022-09-05T23:38:11.537Z,1.90
2022-09-05T23:40:41.305Z,2.17
2022-09-05T23:43:09.555Z,2.17
2022-09-05T23:45:37.898Z,2.50
2022-09-05T23:48:06.303Z,2.78
2022-09-05T23:50:34.584Z,2.75
2022-09-05T23:53:06.126Z,2.38
2022-09-05T23:55:35.082Z,2.45
2022-09-05T23:58:03.634Z,2.70
